sensor_id;sensor_type;location;lat;lon;timestamp;P1;durP1;ratioP1;P2;durP2;ratioP2
77589;SDS011;66746;51.328;12.332;2023-05-14T00:01:17;6.90;;;6.18;;
77589;SDS011;66746;51.328;12.332;2023-05-14T00:03:43;6.75;;;5.63;;
77589;SDS011;66746;51.328;12.332;2023-05-14T00:06:10;7.40;;;6.60;;
77589;SDS011;66746;51.328;12.332;2023-05-14T00:08:38;6.30;;;5.65;;
77589;SDS011;66746;51.328;12.332;2023-05-14T00:11:04;6.78;;;6.07;;
77589;SDS011;66746;51.328;12.332;2023-05-14T00:13:31;5.80;;;5.20;;
77589;SDS011;66746;51.328;12.332;2023-05-14T00:15:57;8.20;;;6.10;;
77589;SDS011;66746;51.328;12.332;2023-05-14T00:18:23;6.68;;;5.90;;
77589;SDS011;66746;51.328;12.332;2023-05-14T00:20:50;7.30;;;6.60;;
77589;SDS011;66746;51.328;12.332;2023-05-14T00:23:16;7.65;;;6.80;;
77589;SDS011;66746;51.328;12.332;2023-05-14T00:25:44;8.13;;;6.35;;
77589;SDS011;66746;51.328;12.332;2023-05-14T00:28:11;9.98;;;6.63;;
77589;SDS011;66746;51.328;12.332;2023-05-14T00:30:37;7.28;;;5.93;;
77589;SDS011;66746;51.328;12.332;2023-05-14T00:33:04;7.75;;;6.55;;
77589;SDS011;66746;51.328;12.332;2023-05-14T00:35:31;7.03;;;6.05;;
77589;SDS011;66746;51.328;12.332;2023-05-14T00:37:57;8.35;;;7.03;;
77589;SDS011;66746;51.328;12.332;2023-05-14T00:40:24;6.80;;;6.10;;
77589;SDS011;66746;51.328;12.332;2023-05-14T00:42:53;6.40;;;5.78;;
77589;SDS011;66746;51.328;12.332;2023-05-14T00:45:20;9.45;;;6.60;;
77589;SDS011;66746;51.328;12.332;2023-05-14T00:47:47;6.93;;;6.22;;
77589;SDS011;66746;51.328;12.332;2023-05-14T00:50:14;7.28;;;6.13;;
77589;SDS011;66746;51.328;12.332;2023-05-14T00:52:41;7.63;;;6.18;;
77589;SDS011;66746;51.328;12.332;2023-05-14T00:55:08;7.10;;;6.40;;
77589;SDS011;66746;51.328;12.332;2023-05-14T00:57:36;7.07;;;6.07;;
77589;SDS011;66746;51.328;12.332;2023-05-14T01:00:04;6.60;;;5.90;;
77589;SDS011;66746;51.328;12.332;2023-05-14T01:02:32;8.20;;;6.07;;
77589;SDS011;66746;51.328;12.332;2023-05-14T01:04:58;7.15;;;6.32;;
77589;SDS011;66746;51.328;12.332;2023-05-14T01:07:32;8.93;;;6.70;;
77589;SDS011;66746;51.328;12.332;2023-05-14T01:10:05;11.10;;;6.60;;
77589;SDS011;66746;51.328;12.332;2023-05-14T01:12:39;7.80;;;6.75;;
77589;SDS011;66746;51.328;12.332;2023-05-14T01:15:14;7.10;;;5.85;;
77589;SDS011;66746;51.328;12.332;2023-05-14T01:17:47;7.10;;;6.40;;
77589;SDS011;66746;51.328;12.332;2023-05-14T01:20:18;9.00;;;6.32;;
77589;SDS011;66746;51.328;12.332;2023-05-14T01:22:47;6.88;;;6.15;;
77589;SDS011;66746;51.328;12.332;2023-05-14T01:25:14;8.93;;;6.57;;
77589;SDS011;66746;51.328;12.332;2023-05-14T01:27:41;7.85;;;6.95;;
77589;SDS011;66746;51.328;12.332;2023-05-14T01:30:16;7.57;;;5.72;;
77589;SDS011;66746;51.328;12.332;2023-05-14T01:32:47;6.60;;;5.65;;
77589;SDS011;66746;51.328;12.332;2023-05-14T01:35:19;7.10;;;6.35;;
77589;SDS011;66746;51.328;12.332;2023-05-14T01:37:48;7.28;;;6.40;;
77589;SDS011;66746;51.328;12.332;2023-05-14T01:40:16;7.00;;;6.32;;
77589;SDS011;66746;51.328;12.332;2023-05-14T01:42:43;6.80;;;6.13;;
77589;SDS011;66746;51.328;12.332;2023-05-14T01:45:10;6.72;;;6.03;;
77589;SDS011;66746;51.328;12.332;2023-05-14T01:47:37;6.40;;;5.80;;
77589;SDS011;66746;51.328;12.332;2023-05-14T01:50:03;7.65;;;5.68;;
77589;SDS011;66746;51.328;12.332;2023-05-14T01:52:31;7.75;;;6.97;;
77589;SDS011;66746;51.328;12.332;2023-05-14T01:54:58;6.60;;;6.00;;
77589;SDS011;66746;51.328;12.332;2023-05-14T01:57:25;8.10;;;6.28;;
77589;SDS011;66746;51.328;12.332;2023-05-14T01:59:52;9.25;;;8.30;;
77589;SDS011;66746;51.328;12.332;2023-05-14T02:02:18;7.20;;;6.43;;
77589;SDS011;66746;51.328;12.332;2023-05-14T02:04:45;9.05;;;6.28;;
77589;SDS011;66746;51.328;12.332;2023-05-14T02:07:11;6.53;;;5.93;;
77589;SDS011;66746;51.328;12.332;2023-05-14T02:09:38;7.20;;;6.47;;
77589;SDS011;66746;51.328;12.332;2023-05-14T02:12:06;7.13;;;5.38;;
77589;SDS011;66746;51.328;12.332;2023-05-14T02:14:33;7.72;;;7.03;;
77589;SDS011;66746;51.328;12.332;2023-05-14T02:17:00;8.35;;;7.13;;
77589;SDS011;66746;51.328;12.332;2023-05-14T02:19:26;7.32;;;5.75;;
77589;SDS011;66746;51.328;12.332;2023-05-14T02:21:53;8.40;;;6.82;;
77589;SDS011;66746;51.328;12.332;2023-05-14T02:24:19;7.18;;;6.25;;
77589;SDS011;66746;51.328;12.332;2023-05-14T02:26:46;8.73;;;6.82;;
77589;SDS011;66746;51.328;12.332;2023-05-14T02:29:14;6.72;;;5.97;;
77589;SDS011;66746;51.328;12.332;2023-05-14T02:31:40;7.65;;;6.45;;
77589;SDS011;66746;51.328;12.332;2023-05-14T02:34:07;7.43;;;6.28;;
77589;SDS011;66746;51.328;12.332;2023-05-14T02:36:33;7.63;;;6.80;;
77589;SDS011;66746;51.328;12.332;2023-05-14T02:39:00;8.68;;;6.00;;
77589;SDS011;66746;51.328;12.332;2023-05-14T02:41:26;7.38;;;6.18;;
77589;SDS011;66746;51.328;12.332;2023-05-14T02:43:53;6.72;;;5.90;;
77589;SDS011;66746;51.328;12.332;2023-05-14T02:46:21;7.65;;;6.20;;
77589;SDS011;66746;51.328;12.332;2023-05-14T02:48:47;7.32;;;5.95;;
77589;SDS011;66746;51.328;12.332;2023-05-14T02:51:14;7.05;;;6.35;;
77589;SDS011;66746;51.328;12.332;2023-05-14T02:53:40;6.32;;;5.65;;
77589;SDS011;66746;51.328;12.332;2023-05-14T02:56:07;8.65;;;6.57;;
77589;SDS011;66746;51.328;12.332;2023-05-14T02:58:33;7.40;;;6.20;;
77589;SDS011;66746;51.328;12.332;2023-05-14T03:01:00;8.05;;;7.20;;
77589;SDS011;66746;51.328;12.332;2023-05-14T03:03:29;7.47;;;6.70;;
77589;SDS011;66746;51.328;12.332;2023-05-14T03:05:56;8.57;;;6.88;;
77589;SDS011;66746;51.328;12.332;2023-05-14T03:08:22;8.30;;;6.88;;
77589;SDS011;66746;51.328;12.332;2023-05-14T03:10:49;9.13;;;7.70;;
77589;SDS011;66746;51.328;12.332;2023-05-14T03:13:15;9.25;;;7.05;;
77589;SDS011;66746;51.328;12.332;2023-05-14T03:15:42;7.22;;;6.50;;
77589;SDS011;66746;51.328;12.332;2023-05-14T03:18:08;8.48;;;7.38;;
77589;SDS011;66746;51.328;12.332;2023-05-14T03:20:36;7.93;;;6.70;;
77589;SDS011;66746;51.328;12.332;2023-05-14T03:23:04;7.65;;;6.85;;
77589;SDS011;66746;51.328;12.332;2023-05-14T03:25:30;8.15;;;6.70;;
77589;SDS011;66746;51.328;12.332;2023-05-14T03:27:57;8.00;;;6.72;;
77589;SDS011;66746;51.328;12.332;2023-05-14T03:30:23;9.30;;;7.40;;
77589;SDS011;66746;51.328;12.332;2023-05-14T03:32:50;8.75;;;7.20;;
77589;SDS011;66746;51.328;12.332;2023-05-14T03:35:17;7.43;;;6.50;;
77589;SDS011;66746;51.328;12.332;2023-05-14T03:37:45;8.70;;;6.95;;
77589;SDS011;66746;51.328;12.332;2023-05-14T03:40:11;9.70;;;7.30;;
77589;SDS011;66746;51.328;12.332;2023-05-14T03:42:38;7.80;;;6.80;;
77589;SDS011;66746;51.328;12.332;2023-05-14T03:45:05;8.25;;;7.45;;
77589;SDS011;66746;51.328;12.332;2023-05-14T03:47:32;7.30;;;6.55;;
77589;SDS011;66746;51.328;12.332;2023-05-14T03:49:59;8.25;;;7.22;;
77589;SDS011;66746;51.328;12.332;2023-05-14T03:52:26;9.63;;;7.03;;
77589;SDS011;66746;51.328;12.332;2023-05-14T03:54:54;8.07;;;7.28;;
77589;SDS011;66746;51.328;12.332;2023-05-14T03:57:20;8.18;;;6.25;;
77589;SDS011;66746;51.328;12.332;2023-05-14T03:59:46;8.88;;;7.55;;
77589;SDS011;66746;51.328;12.332;2023-05-14T04:02:13;8.32;;;7.03;;
77589;SDS011;66746;51.328;12.332;2023-05-14T04:04:40;10.15;;;7.38;;
77589;SDS011;66746;51.328;12.332;2023-05-14T04:07:06;8.00;;;6.85;;
77589;SDS011;66746;51.328;12.332;2023-05-14T04:09:33;8.10;;;7.15;;
77589;SDS011;66746;51.328;12.332;2023-05-14T04:12:01;7.22;;;6.35;;
77589;SDS011;66746;51.328;12.332;2023-05-14T04:14:27;7.68;;;6.82;;
77589;SDS011;66746;51.328;12.332;2023-05-14T04:16:54;7.05;;;6.15;;
77589;SDS011;66746;51.328;12.332;2023-05-14T04:19:21;8.10;;;7.20;;
77589;SDS011;66746;51.328;12.332;2023-05-14T04:21:47;7.72;;;6.93;;
77589;SDS011;66746;51.328;12.332;2023-05-14T04:24:15;8.13;;;7.30;;
77589;SDS011;66746;51.328;12.332;2023-05-14T04:26:42;7.85;;;7.07;;
77589;SDS011;66746;51.328;12.332;2023-05-14T04:29:09;9.00;;;6.85;;
77589;SDS011;66746;51.328;12.332;2023-05-14T04:31:36;7.38;;;6.57;;
77589;SDS011;66746;51.328;12.332;2023-05-14T04:34:02;7.30;;;6.35;;
77589;SDS011;66746;51.328;12.332;2023-05-14T04:36:30;7.60;;;6.28;;
77589;SDS011;66746;51.328;12.332;2023-05-14T04:38:56;7.95;;;7.15;;
77589;SDS011;66746;51.328;12.332;2023-05-14T04:41:23;8.70;;;6.80;;
77589;SDS011;66746;51.328;12.332;2023-05-14T04:43:49;7.20;;;6.22;;
77589;SDS011;66746;51.328;12.332;2023-05-14T04:46:17;10.73;;;8.55;;
77589;SDS011;66746;51.328;12.332;2023-05-14T04:48:43;8.35;;;6.97;;
77589;SDS011;66746;51.328;12.332;2023-05-14T04:51:10;8.07;;;7.10;;
77589;SDS011;66746;51.328;12.332;2023-05-14T04:53:36;7.45;;;6.10;;
77589;SDS011;66746;51.328;12.332;2023-05-14T04:56:03;6.93;;;6.10;;
77589;SDS011;66746;51.328;12.332;2023-05-14T04:58:29;8.52;;;6.97;;
77589;SDS011;66746;51.328;12.332;2023-05-14T05:00:58;7.82;;;7.07;;
77589;SDS011;66746;51.328;12.332;2023-05-14T05:03:26;7.05;;;6.18;;
77589;SDS011;66746;51.328;12.332;2023-05-14T05:05:53;8.00;;;6.13;;
77589;SDS011;66746;51.328;12.332;2023-05-14T05:08:19;8.82;;;7.97;;
77589;SDS011;66746;51.328;12.332;2023-05-14T05:10:46;8.38;;;7.57;;
77589;SDS011;66746;51.328;12.332;2023-05-14T05:13:12;8.75;;;7.00;;
77589;SDS011;66746;51.328;12.332;2023-05-14T05:15:39;7.68;;;6.88;;
77589;SDS011;66746;51.328;12.332;2023-05-14T05:18:05;8.35;;;6.95;;
77589;SDS011;66746;51.328;12.332;2023-05-14T05:20:33;6.78;;;6.07;;
77589;SDS011;66746;51.328;12.332;2023-05-14T05:22:59;7.55;;;6.85;;
77589;SDS011;66746;51.328;12.332;2023-05-14T05:25:26;9.02;;;7.10;;
77589;SDS011;66746;51.328;12.332;2023-05-14T05:27:52;8.25;;;7.18;;
77589;SDS011;66746;51.328;12.332;2023-05-14T05:30:19;8.65;;;7.18;;
77589;SDS011;66746;51.328;12.332;2023-05-14T05:32:45;9.38;;;7.00;;
77589;SDS011;66746;51.328;12.332;2023-05-14T05:35:12;7.57;;;6.88;;
77589;SDS011;66746;51.328;12.332;2023-05-14T05:37:39;6.90;;;6.22;;
77589;SDS011;66746;51.328;12.332;2023-05-14T05:40:06;6.78;;;6.10;;
77589;SDS011;66746;51.328;12.332;2023-05-14T05:42:34;6.70;;;6.00;;
77589;SDS011;66746;51.328;12.332;2023-05-14T05:45:00;7.45;;;6.07;;
77589;SDS011;66746;51.328;12.332;2023-05-14T05:47:27;6.35;;;5.30;;
77589;SDS011;66746;51.328;12.332;2023-05-14T05:49:53;6.88;;;6.18;;
77589;SDS011;66746;51.328;12.332;2023-05-14T05:52:19;6.60;;;5.60;;
77589;SDS011;66746;51.328;12.332;2023-05-14T05:54:47;9.38;;;5.30;;
77589;SDS011;66746;51.328;12.332;2023-05-14T05:57:14;7.65;;;6.07;;
77589;SDS011;66746;51.328;12.332;2023-05-14T05:59:40;6.78;;;5.43;;
77589;SDS011;66746;51.328;12.332;2023-05-14T06:02:06;7.65;;;5.70;;
77589;SDS011;66746;51.328;12.332;2023-05-14T06:04:33;7.78;;;6.38;;
77589;SDS011;66746;51.328;12.332;2023-05-14T06:06:59;6.80;;;6.20;;
77589;SDS011;66746;51.328;12.332;2023-05-14T06:09:26;7.63;;;6.85;;
77589;SDS011;66746;51.328;12.332;2023-05-14T06:11:54;8.65;;;6.20;;
77589;SDS011;66746;51.328;12.332;2023-05-14T06:14:20;8.95;;;6.60;;
77589;SDS011;66746;51.328;12.332;2023-05-14T06:16:47;6.82;;;5.65;;
77589;SDS011;66746;51.328;12.332;2023-05-14T06:19:13;7.75;;;5.65;;
77589;SDS011;66746;51.328;12.332;2023-05-14T06:21:40;8.85;;;6.60;;
77589;SDS011;66746;51.328;12.332;2023-05-14T06:24:06;7.65;;;5.95;;
77589;SDS011;66746;51.328;12.332;2023-05-14T06:26:33;6.22;;;5.68;;
77589;SDS011;66746;51.328;12.332;2023-05-14T06:29:01;7.35;;;6.75;;
77589;SDS011;66746;51.328;12.332;2023-05-14T06:31:27;9.23;;;7.68;;
77589;SDS011;66746;51.328;12.332;2023-05-14T06:33:54;7.03;;;6.40;;
77589;SDS011;66746;51.328;12.332;2023-05-14T06:36:20;7.88;;;6.18;;
77589;SDS011;66746;51.328;12.332;2023-05-14T06:38:47;6.72;;;5.55;;
77589;SDS011;66746;51.328;12.332;2023-05-14T06:41:13;7.10;;;6.40;;
77589;SDS011;66746;51.328;12.332;2023-05-14T06:43:40;6.32;;;5.30;;
77589;SDS011;66746;51.328;12.332;2023-05-14T06:46:07;7.57;;;6.75;;
77589;SDS011;66746;51.328;12.332;2023-05-14T06:48:34;8.40;;;5.85;;
77589;SDS011;66746;51.328;12.332;2023-05-14T06:51:00;7.68;;;5.50;;
77589;SDS011;66746;51.328;12.332;2023-05-14T06:53:27;7.30;;;6.60;;
77589;SDS011;66746;51.328;12.332;2023-05-14T06:55:53;6.63;;;5.50;;
77589;SDS011;66746;51.328;12.332;2023-05-14T06:58:20;6.85;;;6.15;;
77589;SDS011;66746;51.328;12.332;2023-05-14T07:00:46;5.85;;;5.10;;
77589;SDS011;66746;51.328;12.332;2023-05-14T07:03:14;6.32;;;5.40;;
77589;SDS011;66746;51.328;12.332;2023-05-14T07:05:41;6.13;;;5.53;;
77589;SDS011;66746;51.328;12.332;2023-05-14T07:08:07;6.20;;;5.60;;
77589;SDS011;66746;51.328;12.332;2023-05-14T07:10:34;7.10;;;5.82;;
77589;SDS011;66746;51.328;12.332;2023-05-14T07:13:00;6.10;;;5.07;;
77589;SDS011;66746;51.328;12.332;2023-05-14T07:15:27;6.20;;;5.60;;
77589;SDS011;66746;51.328;12.332;2023-05-14T07:17:53;6.90;;;6.20;;
77589;SDS011;66746;51.328;12.332;2023-05-14T07:20:21;6.28;;;5.25;;
77589;SDS011;66746;51.328;12.332;2023-05-14T07:22:48;7.93;;;5.95;;
77589;SDS011;66746;51.328;12.332;2023-05-14T07:25:15;6.45;;;5.63;;
77589;SDS011;66746;51.328;12.332;2023-05-14T07:27:41;7.93;;;5.72;;
77589;SDS011;66746;51.328;12.332;2023-05-14T07:30:08;6.50;;;5.18;;
77589;SDS011;66746;51.328;12.332;2023-05-14T07:32:34;6.00;;;5.40;;
77589;SDS011;66746;51.328;12.332;2023-05-14T07:35:01;5.75;;;5.05;;
77589;SDS011;66746;51.328;12.332;2023-05-14T07:37:29;6.90;;;4.90;;
77589;SDS011;66746;51.328;12.332;2023-05-14T07:39:55;5.93;;;5.22;;
77589;SDS011;66746;51.328;12.332;2023-05-14T07:42:22;5.40;;;4.80;;
77589;SDS011;66746;51.328;12.332;2023-05-14T07:45:01;5.53;;;4.95;;
77589;SDS011;66746;51.328;12.332;2023-05-14T07:47:28;7.07;;;5.22;;
77589;SDS011;66746;51.328;12.332;2023-05-14T07:49:55;5.32;;;4.82;;
77589;SDS011;66746;51.328;12.332;2023-05-14T07:52:22;7.00;;;4.82;;
77589;SDS011;66746;51.328;12.332;2023-05-14T07:54:50;6.00;;;4.35;;
77589;SDS011;66746;51.328;12.332;2023-05-14T07:57:17;6.07;;;4.90;;
77589;SDS011;66746;51.328;12.332;2023-05-14T07:59:44;5.57;;;5.00;;
77589;SDS011;66746;51.328;12.332;2023-05-14T08:02:10;5.75;;;4.47;;
77589;SDS011;66746;51.328;12.332;2023-05-14T08:04:37;6.28;;;5.10;;
77589;SDS011;66746;51.328;12.332;2023-05-14T08:07:04;6.10;;;4.70;;
77589;SDS011;66746;51.328;12.332;2023-05-14T08:09:32;5.70;;;5.20;;
77589;SDS011;66746;51.328;12.332;2023-05-14T08:12:00;4.78;;;4.35;;
77589;SDS011;66746;51.328;12.332;2023-05-14T08:14:26;5.25;;;4.75;;
77589;SDS011;66746;51.328;12.332;2023-05-14T08:16:53;6.15;;;5.22;;
77589;SDS011;66746;51.328;12.332;2023-05-14T08:19:20;5.78;;;4.50;;
77589;SDS011;66746;51.328;12.332;2023-05-14T08:21:46;5.93;;;5.30;;
77589;SDS011;66746;51.328;12.332;2023-05-14T08:24:16;5.20;;;4.28;;
77589;SDS011;66746;51.328;12.332;2023-05-14T08:26:46;5.40;;;4.05;;
77589;SDS011;66746;51.328;12.332;2023-05-14T08:29:13;6.07;;;4.47;;
77589;SDS011;66746;51.328;12.332;2023-05-14T08:31:42;5.25;;;4.35;;
77589;SDS011;66746;51.328;12.332;2023-05-14T08:34:08;6.70;;;4.53;;
77589;SDS011;66746;51.328;12.332;2023-05-14T08:36:35;5.28;;;4.45;;
77589;SDS011;66746;51.328;12.332;2023-05-14T08:39:01;5.20;;;4.55;;
77589;SDS011;66746;51.328;12.332;2023-05-14T08:41:28;5.07;;;4.65;;
77589;SDS011;66746;51.328;12.332;2023-05-14T08:43:56;5.97;;;4.43;;
77589;SDS011;66746;51.328;12.332;2023-05-14T08:46:32;5.60;;;4.95;;
77589;SDS011;66746;51.328;12.332;2023-05-14T08:49:04;5.70;;;4.85;;
77589;SDS011;66746;51.328;12.332;2023-05-14T08:51:38;6.88;;;5.32;;
77589;SDS011;66746;51.328;12.332;2023-05-14T08:54:05;7.78;;;5.45;;
77589;SDS011;66746;51.328;12.332;2023-05-14T08:56:32;5.70;;;4.68;;
77589;SDS011;66746;51.328;12.332;2023-05-14T08:58:58;5.45;;;4.93;;
77589;SDS011;66746;51.328;12.332;2023-05-14T09:01:25;5.38;;;4.75;;
77589;SDS011;66746;51.328;12.332;2023-05-14T09:03:53;6.03;;;4.47;;
77589;SDS011;66746;51.328;12.332;2023-05-14T09:06:20;6.22;;;4.85;;
77589;SDS011;66746;51.328;12.332;2023-05-14T09:08:47;5.60;;;4.07;;
77589;SDS011;66746;51.328;12.332;2023-05-14T09:11:13;6.38;;;4.85;;
77589;SDS011;66746;51.328;12.332;2023-05-14T09:13:40;6.18;;;4.70;;
77589;SDS011;66746;51.328;12.332;2023-05-14T09:16:06;6.15;;;4.28;;
77589;SDS011;66746;51.328;12.332;2023-05-14T09:18:34;6.00;;;5.18;;
77589;SDS011;66746;51.328;12.332;2023-05-14T09:21:02;9.35;;;5.60;;
77589;SDS011;66746;51.328;12.332;2023-05-14T09:23:30;7.25;;;4.90;;
77589;SDS011;66746;51.328;12.332;2023-05-14T09:25:57;7.07;;;4.65;;
77589;SDS011;66746;51.328;12.332;2023-05-14T09:28:24;6.95;;;4.75;;
77589;SDS011;66746;51.328;12.332;2023-05-14T09:30:50;5.40;;;4.90;;
77589;SDS011;66746;51.328;12.332;2023-05-14T09:33:24;4.90;;;4.40;;
77589;SDS011;66746;51.328;12.332;2023-05-14T09:35:52;5.43;;;5.03;;
77589;SDS011;66746;51.328;12.332;2023-05-14T09:38:27;5.90;;;5.28;;
77589;SDS011;66746;51.328;12.332;2023-05-14T09:40:54;5.07;;;4.68;;
77589;SDS011;66746;51.328;12.332;2023-05-14T09:43:20;6.30;;;4.63;;
77589;SDS011;66746;51.328;12.332;2023-05-14T09:45:47;9.25;;;4.47;;
77589;SDS011;66746;51.328;12.332;2023-05-14T09:48:13;5.15;;;4.65;;
77589;SDS011;66746;51.328;12.332;2023-05-14T09:50:40;5.28;;;4.47;;
77589;SDS011;66746;51.328;12.332;2023-05-14T09:53:07;7.00;;;4.82;;
77589;SDS011;66746;51.328;12.332;2023-05-14T09:55:36;4.22;;;3.83;;
77589;SDS011;66746;51.328;12.332;2023-05-14T09:58:03;7.13;;;3.90;;
77589;SDS011;66746;51.328;12.332;2023-05-14T10:00:30;5.13;;;4.63;;
77589;SDS011;66746;51.328;12.332;2023-05-14T10:02:57;5.20;;;4.05;;
77589;SDS011;66746;51.328;12.332;2023-05-14T10:05:24;4.60;;;4.07;;
77589;SDS011;66746;51.328;12.332;2023-05-14T10:07:52;4.57;;;4.07;;
77589;SDS011;66746;51.328;12.332;2023-05-14T10:10:23;5.10;;;4.60;;
77589;SDS011;66746;51.328;12.332;2023-05-14T10:12:56;6.80;;;3.83;;
77589;SDS011;66746;51.328;12.332;2023-05-14T10:15:29;4.80;;;4.20;;
77589;SDS011;66746;51.328;12.332;2023-05-14T10:18:02;5.80;;;4.55;;
77589;SDS011;66746;51.328;12.332;2023-05-14T10:20:33;6.88;;;4.57;;
77589;SDS011;66746;51.328;12.332;2023-05-14T10:23:16;7.00;;;4.97;;
77589;SDS011;66746;51.328;12.332;2023-05-14T10:25:43;4.80;;;4.22;;
77589;SDS011;66746;51.328;12.332;2023-05-14T10:28:11;7.25;;;5.32;;
77589;SDS011;66746;51.328;12.332;2023-05-14T10:30:40;5.95;;;5.35;;
77589;SDS011;66746;51.328;12.332;2023-05-14T10:33:10;6.43;;;4.65;;
77589;SDS011;66746;51.328;12.332;2023-05-14T10:35:50;6.13;;;4.38;;
77589;SDS011;66746;51.328;12.332;2023-05-14T10:38:21;6.05;;;5.15;;
77589;SDS011;66746;51.328;12.332;2023-05-14T10:40:48;5.40;;;4.65;;
77589;SDS011;66746;51.328;12.332;2023-05-14T10:43:19;5.60;;;4.43;;
77589;SDS011;66746;51.328;12.332;2023-05-14T10:45:48;6.60;;;5.93;;
77589;SDS011;66746;51.328;12.332;2023-05-14T10:48:14;5.43;;;4.57;;
77589;SDS011;66746;51.328;12.332;2023-05-14T10:50:41;7.10;;;4.43;;
77589;SDS011;66746;51.328;12.332;2023-05-14T10:53:11;5.47;;;4.40;;
77589;SDS011;66746;51.328;12.332;2023-05-14T10:55:38;5.55;;;4.95;;
77589;SDS011;66746;51.328;12.332;2023-05-14T10:58:04;6.32;;;4.47;;
77589;SDS011;66746;51.328;12.332;2023-05-14T11:00:33;5.25;;;4.75;;
77589;SDS011;66746;51.328;12.332;2023-05-14T11:03:02;5.68;;;5.18;;
77589;SDS011;66746;51.328;12.332;2023-05-14T11:05:30;5.00;;;4.53;;
77589;SDS011;66746;51.328;12.332;2023-05-14T11:07:57;5.57;;;4.53;;
77589;SDS011;66746;51.328;12.332;2023-05-14T11:10:25;5.03;;;3.90;;
77589;SDS011;66746;51.328;12.332;2023-05-14T11:12:52;4.78;;;4.25;;
77589;SDS011;66746;51.328;12.332;2023-05-14T11:15:19;5.82;;;5.18;;
77589;SDS011;66746;51.328;12.332;2023-05-14T11:17:49;7.40;;;4.38;;
77589;SDS011;66746;51.328;12.332;2023-05-14T11:20:18;4.88;;;4.43;;
77589;SDS011;66746;51.328;12.332;2023-05-14T11:22:46;7.40;;;4.65;;
77589;SDS011;66746;51.328;12.332;2023-05-14T11:25:13;4.97;;;4.45;;
77589;SDS011;66746;51.328;12.332;2023-05-14T11:27:40;5.82;;;5.15;;
77589;SDS011;66746;51.328;12.332;2023-05-14T11:30:11;10.70;;;5.63;;
77589;SDS011;66746;51.328;12.332;2023-05-14T11:32:38;5.72;;;4.95;;
77589;SDS011;66746;51.328;12.332;2023-05-14T11:35:07;5.43;;;4.85;;
77589;SDS011;66746;51.328;12.332;2023-05-14T11:37:33;5.85;;;5.00;;
77589;SDS011;66746;51.328;12.332;2023-05-14T11:40:00;5.82;;;4.63;;
77589;SDS011;66746;51.328;12.332;2023-05-14T11:42:27;7.82;;;5.45;;
77589;SDS011;66746;51.328;12.332;2023-05-14T11:44:53;6.63;;;5.95;;
77589;SDS011;66746;51.328;12.332;2023-05-14T11:47:20;5.78;;;5.18;;
77589;SDS011;66746;51.328;12.332;2023-05-14T11:49:47;6.72;;;5.53;;
77589;SDS011;66746;51.328;12.332;2023-05-14T11:52:23;6.85;;;5.80;;
77589;SDS011;66746;51.328;12.332;2023-05-14T11:55:08;6.00;;;5.25;;
77589;SDS011;66746;51.328;12.332;2023-05-14T11:57:50;6.35;;;5.72;;
77589;SDS011;66746;51.328;12.332;2023-05-14T12:00:16;5.50;;;4.63;;
77589;SDS011;66746;51.328;12.332;2023-05-14T12:02:44;5.72;;;5.20;;
77589;SDS011;66746;51.328;12.332;2023-05-14T12:05:13;6.45;;;5.25;;
77589;SDS011;66746;51.328;12.332;2023-05-14T12:07:43;5.70;;;5.10;;
77589;SDS011;66746;51.328;12.332;2023-05-14T12:10:10;6.68;;;6.07;;
77589;SDS011;66746;51.328;12.332;2023-05-14T12:12:37;7.13;;;4.90;;
77589;SDS011;66746;51.328;12.332;2023-05-14T12:15:09;4.88;;;4.40;;
77589;SDS011;66746;51.328;12.332;2023-05-14T12:17:36;5.93;;;4.55;;
77589;SDS011;66746;51.328;12.332;2023-05-14T12:20:03;4.30;;;3.83;;
77589;SDS011;66746;51.328;12.332;2023-05-14T12:22:33;6.45;;;5.40;;
77589;SDS011;66746;51.328;12.332;2023-05-14T12:25:08;6.35;;;5.25;;
77589;SDS011;66746;51.328;12.332;2023-05-14T12:27:36;7.35;;;5.63;;
77589;SDS011;66746;51.328;12.332;2023-05-14T12:30:03;5.93;;;5.07;;
77589;SDS011;66746;51.328;12.332;2023-05-14T12:32:34;5.95;;;5.05;;
77589;SDS011;66746;51.328;12.332;2023-05-14T12:35:03;4.40;;;3.67;;
77589;SDS011;66746;51.328;12.332;2023-05-14T12:37:30;5.32;;;3.65;;
77589;SDS011;66746;51.328;12.332;2023-05-14T12:39:56;4.20;;;3.53;;
77589;SDS011;66746;51.328;12.332;2023-05-14T12:42:24;3.85;;;3.53;;
77589;SDS011;66746;51.328;12.332;2023-05-14T12:44:51;4.45;;;3.50;;
77589;SDS011;66746;51.328;12.332;2023-05-14T12:47:17;4.82;;;3.25;;
77589;SDS011;66746;51.328;12.332;2023-05-14T12:49:44;4.47;;;3.45;;
77589;SDS011;66746;51.328;12.332;2023-05-14T12:52:10;5.40;;;3.40;;
77589;SDS011;66746;51.328;12.332;2023-05-14T12:54:40;3.72;;;3.30;;
77589;SDS011;66746;51.328;12.332;2023-05-14T12:57:08;6.55;;;3.40;;
77589;SDS011;66746;51.328;12.332;2023-05-14T12:59:36;7.25;;;3.75;;
77589;SDS011;66746;51.328;12.332;2023-05-14T13:02:02;3.65;;;3.35;;
77589;SDS011;66746;51.328;12.332;2023-05-14T13:04:29;3.70;;;3.30;;
77589;SDS011;66746;51.328;12.332;2023-05-14T13:06:55;5.28;;;4.32;;
77589;SDS011;66746;51.328;12.332;2023-05-14T13:09:22;6.57;;;4.32;;
77589;SDS011;66746;51.328;12.332;2023-05-14T13:11:48;5.70;;;3.92;;
77589;SDS011;66746;51.328;12.332;2023-05-14T13:14:15;4.30;;;3.90;;
77589;SDS011;66746;51.328;12.332;2023-05-14T13:16:44;4.95;;;4.47;;
77589;SDS011;66746;51.328;12.332;2023-05-14T13:19:11;4.90;;;4.32;;
77589;SDS011;66746;51.328;12.332;2023-05-14T13:21:37;8.25;;;4.88;;
77589;SDS011;66746;51.328;12.332;2023-05-14T13:24:04;6.95;;;3.88;;
77589;SDS011;66746;51.328;12.332;2023-05-14T13:26:31;3.92;;;3.53;;
77589;SDS011;66746;51.328;12.332;2023-05-14T13:28:57;4.13;;;3.33;;
77589;SDS011;66746;51.328;12.332;2023-05-14T13:31:23;5.10;;;3.63;;
77589;SDS011;66746;51.328;12.332;2023-05-14T13:33:51;3.60;;;2.60;;
77589;SDS011;66746;51.328;12.332;2023-05-14T13:36:18;5.53;;;3.08;;
77589;SDS011;66746;51.328;12.332;2023-05-14T13:38:44;3.15;;;2.08;;
77589;SDS011;66746;51.328;12.332;2023-05-14T13:41:11;3.55;;;2.40;;
77589;SDS011;66746;51.328;12.332;2023-05-14T13:43:37;4.28;;;2.42;;
77589;SDS011;66746;51.328;12.332;2023-05-14T13:46:04;2.97;;;2.33;;
77589;SDS011;66746;51.328;12.332;2023-05-14T13:48:30;3.55;;;2.53;;
77589;SDS011;66746;51.328;12.332;2023-05-14T13:50:58;4.85;;;2.70;;
77589;SDS011;66746;51.328;12.332;2023-05-14T13:53:28;3.83;;;3.00;;
77589;SDS011;66746;51.328;12.332;2023-05-14T13:55:54;3.15;;;2.83;;
77589;SDS011;66746;51.328;12.332;2023-05-14T13:58:21;3.13;;;2.75;;
77589;SDS011;66746;51.328;12.332;2023-05-14T14:00:48;3.30;;;3.00;;
77589;SDS011;66746;51.328;12.332;2023-05-14T14:03:14;3.33;;;2.85;;
77589;SDS011;66746;51.328;12.332;2023-05-14T14:05:40;3.58;;;3.13;;
77589;SDS011;66746;51.328;12.332;2023-05-14T14:08:08;3.10;;;2.30;;
77589;SDS011;66746;51.328;12.332;2023-05-14T14:10:48;3.33;;;3.03;;
77589;SDS011;66746;51.328;12.332;2023-05-14T14:13:15;3.55;;;3.20;;
77589;SDS011;66746;51.328;12.332;2023-05-14T14:15:41;4.20;;;3.33;;
77589;SDS011;66746;51.328;12.332;2023-05-14T14:18:08;4.72;;;4.15;;
77589;SDS011;66746;51.328;12.332;2023-05-14T14:20:34;3.65;;;3.25;;
77589;SDS011;66746;51.328;12.332;2023-05-14T14:23:01;4.13;;;3.42;;
77589;SDS011;66746;51.328;12.332;2023-05-14T14:25:29;4.63;;;3.22;;
77589;SDS011;66746;51.328;12.332;2023-05-14T14:27:55;5.05;;;3.25;;
77589;SDS011;66746;51.328;12.332;2023-05-14T14:30:22;3.78;;;2.70;;
77589;SDS011;66746;51.328;12.332;2023-05-14T14:32:49;3.83;;;3.42;;
77589;SDS011;66746;51.328;12.332;2023-05-14T14:35:16;3.17;;;2.88;;